• Join FlightAware (Why Join?)
  • Login
  • US Flag 
11:26PM EDT


 

Airport Tracker/Info


-or-


 

Live Flight TrackerFlight Track Log ✈ N118RT ✈ 17-Jul-2013 ✈ KELP - MMTC / TRC

Flight Track Log - Related Links

Times and Time Zones

All times are in EDT time to prevent confusion due to time zone crossing. See the N118RT flight status page for this flight to view local times or setup timezone preferences in your user account.

Time Position Orientation Groundspeed Altitude Reporting Facility
EDT Latitude Longitude Course Direction KTS MPH feet Rate Location/Type
12:58PM 31.8006 -106.3583 93° East 156 180 4,400  Level Albuquerque Center
12:58PM 31.7992 -106.3222 93° East 188 216 5,700 2,820 Climbing Albuquerque Center
01:00PM 31.7608 -106.2603 126° Southeast 217 250 9,200 2,820 Climbing Albuquerque Center
01:01PM 31.7147 -106.2142 140° Southeast 219 252 11,600 2,340 Climbing Albuquerque Center
01:02PM 31.6597 -106.1731 148° Southeast 233 268 14,100 2,400 Climbing Albuquerque Center
01:03PM 31.6019 -106.1311 148° Southeast 228 262 16,600 1,500 Climbing Albuquerque Center
01:04PM 31.5397 -106.0853 148° Southeast 267 307 17,300 1,380 Climbing Albuquerque Center
01:05PM 31.4733 -106.0314 145° Southeast 270 311 19,500 1,920 Climbing Albuquerque Center
01:06PM 31.4206 -105.9756 138° Southeast 256 295 21,300 1,680 Climbing Albuquerque Center
01:07PM 31.3683 -105.9022 130° Southeast 270 311 23,000 1,560 Climbing Albuquerque Center
01:08PM 31.3178 -105.8353 131° Southeast 274 315 24,600 1,260 Climbing Albuquerque Center
01:09PM 31.2683 -105.7689 131° Southeast 272 313 25,700 1,080 Climbing Albuquerque Center
01:10PM 31.2133 -105.6953 131° Southeast 279 321 26,900 960 Climbing Albuquerque Center
01:11PM 31.1656 -105.6303 131° Southeast 285 328 27,800 960 Climbing Albuquerque Center
01:12PM 31.1136 -105.5589 130° Southeast 289 333 28,900 780 Climbing Albuquerque Center
01:17PM 30.6950 -105.3180 130° Southeast 327 376 32,900 660 Climbing FlightAware
01:18PM 30.6370 -105.2960 162° South 326 375 33,200 180 Climbing FlightAware
01:19PM 30.5790 -105.2720 160° South 326 375 33,200 1,080 Level FlightAware
01:19PM 30.5100 -105.2480 163° South 327 376 34,700 1,680 Climbing FlightAware
01:20PM 30.4480 -105.2250 162° South 331 381 35,400 480 Climbing FlightAware
01:21PM 30.4000 -105.2060 161° South 331 381 35,400 840 Level FlightAware
01:22PM 30.3240 -105.1780 162° South 334 384 36,600 1,320 Climbing FlightAware
01:22PM 30.2630 -105.1550 162° South 329 379 37,400 780 Climbing FlightAware
01:23PM 30.1870 -105.1270 162° South 332 382 37,900 300 Climbing FlightAware
01:24PM 30.1410 -105.1080 160° South 332 382 37,900  Level FlightAware
01:24PM 30.0990 -105.0920 162° South 332 382 37,900  Level FlightAware
01:25PM 30.0370 -105.0670 161° South 332 382 37,900  Level FlightAware
01:26PM 29.9910 -105.0490 161° South 332 382 37,900  Level FlightAware
01:26PM 29.9460 -105.0310 161° South 332 382 37,900 1,320 Level FlightAware
01:27PM 29.8160 -104.9880 164° South 343 395 39,900 1,560 Climbing FlightAware
01:28PM 29.7570 -104.9660 162° South 339 390 40,300 300 Climbing FlightAware
01:29PM 29.6890 -104.9410 162° South 348 400 40,400 300 Climbing FlightAware
01:29PM 29.6270 -104.9180 162° South 346 398 40,800 300 Climbing FlightAware
01:30PM 29.5760 -104.8990 162° South 349 402 40,800  Level FlightAware
01:31PM 29.5120 -104.8750 162° South 349 402 40,800  Level FlightAware
01:31PM 29.4640 -104.8570 162° South 349 402 40,800  Level FlightAware
01:32PM 29.4010 -104.8340 162° South 349 402 40,800  Level FlightAware
01:33PM 29.3560 -104.8170 162° South 349 402 40,800  Level FlightAware
01:34PM 29.2960 -104.7940 162° South 349 402 40,800 120 Level FlightAware
01:34PM 29.1560 -104.7440 163° South 380 437 41,000 120 Climbing FlightAware
01:35PM 29.0860 -104.7180 162° South 382 440 41,000  Level FlightAware
01:36PM 29.0080 -104.6900 163° South 383 441 41,000  Level FlightAware
01:36PM 28.9390 -104.6650 162° South 384 442 41,000  Level FlightAware
01:37PM 28.8650 -104.6370 162° South 384 442 41,000  Level FlightAware
01:38PM 28.7980 -104.6130 163° South 385 443 41,000  Level FlightAware
01:38PM 28.7220 -104.5850 162° South 385 443 41,000  Level FlightAware
01:39PM 28.6520 -104.5600 163° South 384 442 41,000  Level FlightAware
01:40PM 28.5870 -104.5360 162° South 383 441 41,000  Level FlightAware
01:40PM 28.5260 -104.5140 162° South 382 440 41,000  Level FlightAware
01:41PM 28.4510 -104.4870 162° South 382 440 41,000  Level FlightAware
01:42PM 28.3890 -104.4650 163° South 382 440 41,000  Level FlightAware
01:43PM 28.3100 -104.4360 162° South 382 440 41,000  Level FlightAware
01:43PM 28.2400 -104.4110 163° South 382 440 41,000  Level FlightAware
01:44PM 28.1690 -104.3850 162° South 382 440 41,000  Level FlightAware
01:45PM 28.1050 -104.3630 163° South 382 440 41,000  Level FlightAware
01:45PM 28.0400 -104.3390 162° South 381 438 41,000  Level FlightAware
01:46PM 27.9690 -104.3140 163° South 382 440 41,000  Level FlightAware
01:47PM 27.8950 -104.2870 162° South 381 438 41,000  Level FlightAware
01:47PM 27.8310 -104.2640 162° South 382 440 41,000  Level FlightAware
01:48PM 27.7580 -104.2380 163° South 381 438 41,000  Level FlightAware
01:49PM 27.6880 -104.2130 162° South 382 440 41,000  Level FlightAware
01:49PM 27.6100 -104.1860 163° South 382 440 41,000  Level FlightAware
01:50PM 27.5440 -104.1620 162° South 383 441 41,000  Level FlightAware
01:51PM 27.4770 -104.1380 162° South 382 440 41,000  Level FlightAware
01:51PM 27.4010 -104.1110 162° South 382 440 41,000  Level FlightAware
01:52PM 27.3300 -104.0860 163° South 382 440 41,000 -660 Level FlightAware
01:53PM 27.2610 -104.0620 163° South 398 458 40,100 -1,020 Descending FlightAware
01:54PM 27.1930 -104.0370 162° South 404 465 39,600 -420 Descending FlightAware
01:54PM 27.1390 -104.0180 163° South 404 465 39,600  Level FlightAware
01:55PM 27.0660 -103.9910 162° South 404 465 39,600  Level FlightAware
01:56PM 27.0100 -103.9710 162° South 404 465 39,600  Level FlightAware
01:56PM 26.9380 -103.9440 162° South 404 465 39,600 -5,700 Level FlightAware
01:57PM 26.8220 -103.8950 159° South 395 455 31,300 -6,480 Descending FlightAware
01:58PM 26.7680 -103.8740 161° South 395 455 31,300  Level FlightAware
01:58PM 26.7000 -103.8480 161° South 395 455 31,300 -2,460 Level FlightAware
01:59PM 26.6180 -103.8160 161° South 387 445 27,800 -2,400 Descending FlightAware
02:00PM 26.5480 -103.7890 161° South 387 445 27,800 -2,460 Level FlightAware
02:01PM 26.4900 -103.7660 160° South 344 396 24,300 -4,080 Descending FlightAware
02:01PM 26.4380 -103.7460 161° South 344 396 23,200 -2,040 Descending FlightAware
02:02PM 26.3480 -103.7110 161° South 335 386 21,300 -1,380 Descending FlightAware
02:03PM 26.2970 -103.6910 161° South 335 386 20,900 -360 Descending FlightAware
02:03PM 26.2520 -103.6740 161° South 335 386 20,900 -1,440 Level FlightAware
02:04PM 26.1850 -103.6480 161° South 322 371 19,000 -2,820 Descending FlightAware
02:05PM 26.1030 -103.6160 161° South 282 325 15,900 -2,640 Descending FlightAware
02:06PM 26.0300 -103.5880 161° South 265 305 13,700 -2,220 Descending FlightAware
02:07PM 25.9540 -103.5580 160° South 251 289 11,300 -2,220 Descending FlightAware
02:08PM 25.8830 -103.5310 161° South 240 276 8,900 -2,040 Descending FlightAware
02:09PM 25.8530 -103.5190 160° South 229 264 8,100 -1,500 Descending FlightAware
02:09PM 25.8370 -103.5130 161° South 220 253 7,800 -1,380 Descending FlightAware
02:10PM 25.8070 -103.5140 182° South 217 250 7,100 -1,320 Descending FlightAware
02:10PM 25.7950 -103.5190 201° Southwest 219 252 6,800 -780 Descending FlightAware
02:10PM 25.7620 -103.5310 198° South 216 249 6,500 -240 Descending FlightAware
02:11PM 25.7280 -103.5420 196° South 196 226 6,500 -180 Level FlightAware
02:12PM 25.6970 -103.5380 173° South 177 204 6,300 -600 Descending FlightAware
02:13PM 25.6600 -103.5100 146° Southeast 171 197 5,700 -780 Descending FlightAware
02:13PM 25.6520 -103.5010 135° Southeast 171 197 5,500 -540 Descending FlightAware
02:13PM 25.6380 -103.4850 134° Southeast 156 180 5,300 -720 Descending FlightAware
02:14PM 25.6200 -103.4660 136° Southeast 128 147 4,800 -780 Descending FlightAware
02:14PM 25.6050 -103.4500 136° Southeast 116 133 4,400 -720 Descending FlightAware
02:15PM 25.5960 -103.4400 135° Southeast 113 130 4,100 -660 Descending FlightAware
02:15PM 25.5870 -103.4300 135° Southeast 111 128 3,900 -600 Descending FlightAware
02:16PM 25.5750 -103.4180 138° Southeast 114 131 3,600 -480 Descending FlightAware
02:16PM 25.5730 -103.4160 138° Southeast 112 129 3,600  Level FlightAware
02:19PM 25.5667 -103.4167 270° West  Level FlightAware Approximate
02:20PM 25.5683 -103.4106 270° West  Level Estimated
02:21PM 25.5667 -103.4167 270° West  Level FlightAware Approximate
02:22PM 25.5683 -103.4106 270° West  Level Estimated
02:23PM 25.5667 -103.4167 270° West  Level FlightAware Approximate
02:24PM 25.5683 -103.4106 270° West  Level Estimated
02:25PM 25.5667 -103.4167 270° West  Level FlightAware Approximate
02:26PM 25.5683 -103.4106 270° West  Level Estimated
02:27PM 25.5667 -103.4167 270° West  Level FlightAware Approximate
02:28PM 25.5683 -103.4106 270° West  Level Estimated
02:29PM 25.5667 -103.4167 270° West  Level FlightAware Approximate
02:30PM 25.5683 -103.4106 270° West  Level Estimated
02:31PM 25.5667 -103.4167 270° West  Level FlightAware Approximate
02:32PM 25.5683 -103.4106 270° West  Level Estimated
02:33PM 25.5667 -103.4167 270° West  Level FlightAware Approximate
02:34PM 25.5683 -103.4106 270° West  Level Estimated
02:35PM 25.5667 -103.4167 270° West  Level FlightAware Approximate
02:36PM 25.5683 -103.4106 270° West  Level Estimated
02:37PM 25.5667 -103.4167 270° West  Level FlightAware Approximate
02:38PM 25.5683 -103.4106 270° West  Level Estimated